Terminal Aerodrome Forecast
Issued by NWS South Bend, IN

Home | Current Version | Previous Version | Graphics & Text | Print | Product List | Glossary On
Versions: 1 2 3 4 5 6 7 8 9 10 11 12 13 14 15 16 17 18 19
000
FTUS43 KIWX 051000 AAA
TAFSBN
TAF AMD
KSBN 051027Z 0510/0606 10006KT 4SM -SHRA BR SCT010 OVC040
      TEMPO 0510/0514 2SM TSRA BR SCT008 OVC030CB
     FM051400 10007KT 4SM -SHRA BR OVC020
     FM051600 14010KT 5SM -SHRA BR OVC015
     FM052200 10006KT P6SM OVC020=

USA.gov is the U.S. government's official web portal to all federal, state and local government web resources and services.